createdAt,value
2018-06-13T00:00:42.343Z,15.52
2018-06-13T00:03:10.656Z,15.55
2018-06-13T00:05:39.177Z,15.73
2018-06-13T00:08:07.607Z,15.60
2018-06-13T00:10:36.083Z,15.46
2018-06-13T00:13:04.444Z,15.39
2018-06-13T00:15:32.849Z,15.34
2018-06-13T00:18:01.229Z,15.32
2018-06-13T00:20:29.576Z,15.39
2018-06-13T00:22:57.969Z,15.28
2018-06-13T00:25:26.361Z,15.28
2018-06-13T00:27:55.732Z,15.28
2018-06-13T00:30:24.044Z,15.27
2018-06-13T00:32:53.404Z,15.23
2018-06-13T00:35:21.732Z,15.22
2018-06-13T00:37:50.205Z,15.22
2018-06-13T00:40:18.551Z,15.22
2018-06-13T00:42:47.008Z,15.21
2018-06-13T00:45:15.367Z,15.17
2018-06-13T00:47:43.729Z,15.16
2018-06-13T00:50:12.097Z,15.18
2018-06-13T00:52:40.421Z,15.26
2018-06-13T00:55:08.789Z,15.22
2018-06-13T00:57:37.144Z,15.16
2018-06-13T01:00:05.508Z,15.13
2018-06-13T01:02:33.873Z,15.12
2018-06-13T01:05:02.225Z,15.09
2018-06-13T01:07:30.598Z,15.07
2018-06-13T01:09:58.968Z,15.07
2018-06-13T01:12:27.283Z,15.06
2018-06-13T01:14:55.594Z,15.01
2018-06-13T01:17:24.827Z,15.04
2018-06-13T01:19:54.013Z,15.04
2018-06-13T01:22:23.229Z,14.97
2018-06-13T01:24:52.412Z,14.96
2018-06-13T01:27:21.712Z,15.05
2018-06-13T01:29:50.912Z,15.06
2018-06-13T01:32:19.256Z,15.05
2018-06-13T01:34:47.633Z,15.06
2018-06-13T01:37:15.993Z,15.13
2018-06-13T01:39:45.320Z,15.23
2018-06-13T01:42:13.700Z,15.25
2018-06-13T01:44:42.945Z,15.10
2018-06-13T01:47:12.269Z,15.01
2018-06-13T01:49:40.580Z,15.05
2018-06-13T01:52:09.076Z,15.05
2018-06-13T01:54:37.540Z,15.07
2018-06-13T01:57:05.848Z,15.04
2018-06-13T01:59:34.156Z,14.97
2018-06-13T02:02:02.458Z,14.84
2018-06-13T02:04:30.768Z,14.76
2018-06-13T02:06:59.072Z,14.72
2018-06-13T02:09:27.413Z,14.73
2018-06-13T02:11:55.804Z,14.80
2018-06-13T02:14:24.181Z,14.81
2018-06-13T02:16:52.561Z,14.84
2018-06-13T02:19:20.860Z,14.87
2018-06-13T02:21:50.056Z,14.92
2018-06-13T02:24:18.395Z,14.94
2018-06-13T02:26:46.693Z,14.98
2018-06-13T02:29:15.825Z,15.08
2018-06-13T02:31:44.133Z,15.00
2018-06-13T02:34:12.454Z,15.13
2018-06-13T02:36:41.656Z,15.11
2018-06-13T02:39:10.021Z,15.06
2018-06-13T02:41:39.333Z,15.02
2018-06-13T02:44:07.700Z,15.08
2018-06-13T02:46:36.008Z,15.04
2018-06-13T02:49:05.388Z,15.07
2018-06-13T02:51:34.761Z,14.98
2018-06-13T02:54:03.117Z,15.00
2018-06-13T02:56:31.446Z,14.99
2018-06-13T02:58:59.817Z,14.96
2018-06-13T03:01:28.200Z,14.95
2018-06-13T03:03:56.508Z,14.89
2018-06-13T03:06:24.808Z,14.90
2018-06-13T03:08:53.112Z,14.86
2018-06-13T03:11:21.412Z,14.94
2018-06-13T03:13:49.799Z,14.85
2018-06-13T03:16:18.112Z,14.83
2018-06-13T03:18:46.455Z,14.80
2018-06-13T03:21:14.766Z,14.82
2018-06-13T03:23:43.160Z,14.79
2018-06-13T03:26:12.980Z,14.78
2018-06-13T03:28:41.316Z,14.80
2018-06-13T03:31:09.712Z,14.83
2018-06-13T03:33:39.089Z,15.09
2018-06-13T03:36:07.480Z,15.06
2018-06-13T03:38:35.847Z,15.20
2018-06-13T03:41:04.208Z,15.15
2018-06-13T03:43:33.364Z,15.21
2018-06-13T03:46:01.707Z,15.32
2018-06-13T03:48:30.026Z,15.25
2018-06-13T03:50:58.332Z,15.18
2018-06-13T03:53:26.637Z,15.26
2018-06-13T03:55:55.121Z,15.20
2018-06-13T03:58:24.424Z,15.22
2018-06-13T04:00:53.741Z,15.29
2018-06-13T04:03:22.044Z,15.36
2018-06-13T04:05:51.220Z,15.43
2018-06-13T04:08:20.417Z,15.30
2018-06-13T04:10:49.585Z,15.40
2018-06-13T04:13:17.893Z,15.39
2018-06-13T04:15:47.090Z,15.50
2018-06-13T04:18:16.294Z,15.42
2018-06-13T04:20:44.596Z,15.32
2018-06-13T04:23:12.900Z,15.40
2018-06-13T04:25:41.321Z,15.36
2018-06-13T04:28:10.544Z,15.61
2018-06-13T04:30:39.020Z,15.57
2018-06-13T04:33:07.480Z,15.67
2018-06-13T04:35:35.788Z,15.80
2018-06-13T04:38:04.141Z,15.92
2018-06-13T04:40:32.489Z,16.02
2018-06-13T04:43:07.584Z,16.06
2018-06-13T04:45:35.899Z,16.06
2018-06-13T04:48:05.196Z,16.13
2018-06-13T04:50:33.502Z,16.18
2018-06-13T04:53:01.804Z,16.17
2018-06-13T04:55:30.128Z,16.13
2018-06-13T04:57:58.572Z,16.05
2018-06-13T05:00:26.924Z,16.01
2018-06-13T05:02:55.338Z,16.17
2018-06-13T05:05:24.641Z,16.11
2018-06-13T05:07:52.959Z,16.25
2018-06-13T05:10:21.313Z,16.26
2018-06-13T05:12:49.616Z,16.12
2018-06-13T05:15:17.961Z,16.28
2018-06-13T05:17:46.276Z,16.30
2018-06-13T05:20:14.710Z,16.16
2018-06-13T05:22:43.954Z,16.20
2018-06-13T05:25:13.411Z,16.19
2018-06-13T05:27:41.715Z,16.07
2018-06-13T05:30:10.074Z,15.97
2018-06-13T05:32:38.376Z,15.91
2018-06-13T05:35:06.712Z,15.93
2018-06-13T05:37:35.009Z,15.87
2018-06-13T05:40:04.402Z,16.13
2018-06-13T05:42:33.668Z,16.25
2018-06-13T05:45:02.969Z,16.41
2018-06-13T05:47:32.173Z,16.48
2018-06-13T05:50:00.556Z,16.56
2018-06-13T05:52:28.933Z,16.64
2018-06-13T05:54:57.455Z,16.66
2018-06-13T05:57:25.753Z,16.54
2018-06-13T05:59:54.994Z,16.53
2018-06-13T06:02:23.318Z,16.47
2018-06-13T06:04:51.641Z,16.53
2018-06-13T06:07:19.968Z,16.52
2018-06-13T06:09:48.288Z,16.65
2018-06-13T06:12:17.168Z,16.63
2018-06-13T06:14:45.734Z,16.41
2018-06-13T06:17:14.381Z,16.46
2018-06-13T06:19:42.724Z,16.66
2018-06-13T06:22:11.097Z,16.85
2018-06-13T06:24:40.272Z,16.71
2018-06-13T06:27:09.417Z,16.68
2018-06-13T06:29:38.668Z,16.82
2018-06-13T06:32:07.048Z,17.01
2018-06-13T06:34:35.381Z,17.09
2018-06-13T06:37:03.788Z,17.02
2018-06-13T06:39:33.069Z,17.12
2018-06-13T06:42:01.425Z,17.30
2018-06-13T06:44:30.746Z,17.17
2018-06-13T06:47:00.121Z,17.21
2018-06-13T06:49:29.453Z,17.04
2018-06-13T06:51:58.752Z,16.88
2018-06-13T06:54:27.990Z,17.05
2018-06-13T06:56:57.224Z,16.69
2018-06-13T06:59:25.568Z,16.64
2018-06-13T07:01:54.901Z,16.51
2018-06-13T07:04:24.236Z,16.52
2018-06-13T07:06:53.635Z,16.52
2018-06-13T07:09:22.809Z,16.44
2018-06-13T07:11:52.018Z,16.12
2018-06-13T07:14:21.437Z,16.14
2018-06-13T07:16:50.758Z,16.32
2018-06-13T07:19:20.206Z,16.35
2018-06-13T07:21:49.445Z,16.55
2018-06-13T07:24:18.664Z,16.45
2018-06-13T07:26:46.988Z,16.28
2018-06-13T07:29:15.375Z,16.49
2018-06-13T07:31:46.117Z,16.51
2018-06-13T07:34:14.480Z,16.58
2018-06-13T07:36:42.792Z,16.72
2018-06-13T07:39:11.102Z,16.65
2018-06-13T07:41:39.412Z,16.84
2018-06-13T07:44:07.741Z,16.99
2018-06-13T07:46:36.246Z,16.90
2018-06-13T07:49:04.560Z,17.10
2018-06-13T07:51:32.897Z,17.26
2018-06-13T07:54:01.212Z,17.10
2018-06-13T07:56:29.560Z,17.28
2018-06-13T07:58:57.881Z,17.23
2018-06-13T08:01:26.196Z,17.29
2018-06-13T08:03:55.510Z,17.43
2018-06-13T08:06:23.818Z,17.31
2018-06-13T08:08:52.158Z,17.15
2018-06-13T08:11:20.469Z,17.40
2018-06-13T08:13:48.777Z,17.23
2018-06-13T08:16:17.113Z,17.87
2018-06-13T08:18:45.941Z,18.21
2018-06-13T08:21:14.389Z,18.00
2018-06-13T08:23:42.700Z,17.90
2018-06-13T08:26:11.071Z,17.86
2018-06-13T08:28:39.437Z,18.10
2018-06-13T08:31:07.865Z,18.19
2018-06-13T08:33:36.233Z,18.42
2018-06-13T08:36:04.680Z,18.29
2018-06-13T08:38:33.073Z,18.47
2018-06-13T08:41:01.393Z,18.09
2018-06-13T08:43:31.730Z,18.07
2018-06-13T08:46:00.041Z,18.44
2018-06-13T08:48:42.687Z,18.43
2018-06-13T08:51:11.095Z,18.74
2018-06-13T08:53:39.452Z,18.70
2018-06-13T08:56:07.773Z,18.49
2018-06-13T08:58:36.128Z,18.00
2018-06-13T09:01:05.340Z,17.75
2018-06-13T09:03:34.633Z,17.57
2018-06-13T09:06:03.813Z,17.70
2018-06-13T09:08:32.132Z,17.71
2018-06-13T09:11:00.445Z,17.99
2018-06-13T09:13:28.864Z,18.22
2018-06-13T09:15:57.184Z,18.29
2018-06-13T09:18:25.520Z,18.24
2018-06-13T09:20:53.840Z,18.45
2018-06-13T09:23:22.153Z,18.74
2018-06-13T09:25:50.458Z,18.85
2018-06-13T09:28:19.701Z,19.19
2018-06-13T09:30:48.016Z,19.24
2018-06-13T09:33:16.320Z,19.55
2018-06-13T09:35:44.629Z,19.59
2018-06-13T09:38:12.949Z,19.83
2018-06-13T09:40:41.351Z,19.94
2018-06-13T09:43:09.692Z,19.41
2018-06-13T09:45:44.542Z,19.92
2018-06-13T09:48:13.967Z,19.74
2018-06-13T09:50:43.162Z,19.54
2018-06-13T09:53:11.505Z,19.57
2018-06-13T09:55:39.818Z,19.30
2018-06-13T09:58:08.158Z,19.16
2018-06-13T10:00:41.771Z,19.01
2018-06-13T10:03:10.192Z,18.69
2018-06-13T10:05:38.557Z,18.75
2018-06-13T10:08:06.943Z,18.50
2018-06-13T10:10:35.309Z,17.94
2018-06-13T10:13:03.632Z,18.25
2018-06-13T10:15:31.960Z,18.36
2018-06-13T10:18:00.373Z,18.72
2018-06-13T10:20:28.685Z,18.40
2018-06-13T10:22:57.013Z,18.91
2018-06-13T10:25:25.366Z,19.33
2018-06-13T10:27:53.749Z,19.35
2018-06-13T10:30:22.196Z,19.45
2018-06-13T10:32:50.531Z,19.50
2018-06-13T10:35:18.861Z,19.73
2018-06-13T10:37:47.168Z,19.73
2018-06-13T10:40:15.561Z,19.74
2018-06-13T10:42:43.876Z,19.77
2018-06-13T10:45:12.189Z,19.91
2018-06-13T10:47:40.611Z,20.07
2018-06-13T10:50:09.801Z,20.18
2018-06-13T10:52:38.149Z,20.47
2018-06-13T10:55:06.667Z,20.67
2018-06-13T10:57:35.005Z,20.61
2018-06-13T11:00:03.321Z,20.67
2018-06-13T11:02:31.625Z,20.76
2018-06-13T11:04:59.936Z,20.61
2018-06-13T11:07:28.260Z,20.57
2018-06-13T11:09:56.645Z,20.73
2018-06-13T11:12:25.018Z,20.56
2018-06-13T11:14:53.393Z,20.79
2018-06-13T11:17:21.780Z,20.55
2018-06-13T11:19:50.157Z,20.21
2018-06-13T11:22:18.460Z,20.73
2018-06-13T11:24:46.828Z,20.90
2018-06-13T11:27:15.144Z,20.73
2018-06-13T11:29:43.474Z,20.07
2018-06-13T11:32:11.793Z,19.92
2018-06-13T11:34:40.109Z,19.91
2018-06-13T11:37:08.434Z,19.87
2018-06-13T11:39:37.701Z,20.00
2018-06-13T11:42:06.087Z,19.67
2018-06-13T11:44:34.468Z,19.51
2018-06-13T11:47:02.934Z,19.72
2018-06-13T11:49:31.261Z,19.51
2018-06-13T11:51:59.581Z,19.64
2018-06-13T11:54:27.981Z,19.53
2018-06-13T11:56:56.285Z,19.34
2018-06-13T11:59:25.472Z,19.31
2018-06-13T12:01:54.821Z,19.45
2018-06-13T12:04:24.142Z,19.44
2018-06-13T12:06:53.589Z,19.03
2018-06-13T12:09:22.809Z,18.79
2018-06-13T12:11:52.124Z,19.05
2018-06-13T12:14:21.301Z,19.36
2018-06-13T12:16:50.521Z,19.27
2018-06-13T12:19:19.749Z,19.48
2018-06-13T12:21:49.096Z,18.88
2018-06-13T12:24:18.440Z,18.47
2018-06-13T12:26:47.716Z,18.40
2018-06-13T12:29:17.097Z,18.14
2018-06-13T12:31:46.401Z,17.94
2018-06-13T12:34:15.584Z,17.82
2018-06-13T12:36:44.856Z,17.55
2018-06-13T12:39:13.172Z,17.35
2018-06-13T12:41:41.517Z,17.10
2018-06-13T12:44:10.692Z,17.33
2018-06-13T12:46:39.920Z,17.52
2018-06-13T12:49:08.261Z,17.75
2018-06-13T12:51:36.608Z,17.90
2018-06-13T12:54:04.917Z,17.85
2018-06-13T12:56:34.269Z,17.94
2018-06-13T12:59:02.721Z,17.61
2018-06-13T13:01:31.885Z,17.72
2018-06-13T13:04:01.225Z,17.90
2018-06-13T13:06:30.404Z,17.71
2018-06-13T13:08:58.766Z,18.15
2018-06-13T13:11:27.219Z,18.12
2018-06-13T13:13:56.550Z,17.96
2018-06-13T13:16:24.891Z,17.59
2018-06-13T13:18:53.276Z,17.43
2018-06-13T13:21:21.685Z,17.50
2018-06-13T13:23:50.069Z,17.37
2018-06-13T13:26:18.429Z,17.49
2018-06-13T13:28:46.813Z,17.56
2018-06-13T13:31:15.993Z,17.73
2018-06-13T13:33:44.336Z,17.91
2018-06-13T13:36:12.637Z,17.67
2018-06-13T13:38:40.969Z,17.66
2018-06-13T13:41:09.377Z,17.55
2018-06-13T13:43:37.729Z,17.60
2018-06-13T13:46:06.052Z,17.37
2018-06-13T13:48:35.438Z,17.46
2018-06-13T13:51:04.620Z,17.52
2018-06-13T13:53:33.058Z,17.53
2018-06-13T13:56:01.457Z,17.49
2018-06-13T13:58:29.847Z,17.47
2018-06-13T14:00:58.156Z,17.53
2018-06-13T14:03:26.465Z,17.39
2018-06-13T14:05:54.824Z,17.56
2018-06-13T14:08:23.137Z,17.63
2018-06-13T14:10:52.281Z,17.46
2018-06-13T14:13:20.596Z,17.18
2018-06-13T14:15:48.907Z,17.38
2018-06-13T14:18:18.252Z,17.39
2018-06-13T14:20:46.577Z,17.47
2018-06-13T14:23:14.876Z,17.47
2018-06-13T14:25:43.189Z,17.39
2018-06-13T14:28:12.524Z,17.42
2018-06-13T14:30:42.629Z,17.75
2018-06-13T14:33:11.968Z,17.58
2018-06-13T14:35:40.348Z,17.54
2018-06-13T14:38:08.724Z,17.20
2018-06-13T14:40:37.119Z,17.13
2018-06-13T14:43:07.613Z,16.99
2018-06-13T14:45:36.942Z,16.70
2018-06-13T14:48:05.261Z,16.66
2018-06-13T14:50:34.481Z,16.52
2018-06-13T14:53:02.908Z,16.66
2018-06-13T14:55:36.340Z,16.78
2018-06-13T14:58:05.697Z,16.76
2018-06-13T15:00:34.965Z,16.98
2018-06-13T15:03:04.177Z,16.75
2018-06-13T15:05:32.541Z,17.10
2018-06-13T15:08:01.031Z,17.17
2018-06-13T15:10:29.360Z,17.27
2018-06-13T15:12:57.698Z,17.54
2018-06-13T15:15:26.913Z,17.51
2018-06-13T15:17:55.276Z,17.30
2018-06-13T15:20:24.541Z,17.08
2018-06-13T15:22:53.909Z,17.28
2018-06-13T15:25:23.132Z,17.21
2018-06-13T15:27:52.649Z,17.22
2018-06-13T15:30:20.956Z,17.23
2018-06-13T15:32:50.298Z,17.21
2018-06-13T15:35:19.582Z,17.42
2018-06-13T15:37:48.005Z,17.43
2018-06-13T15:40:17.276Z,17.21
2018-06-13T15:42:46.499Z,17.05
2018-06-13T15:45:14.829Z,17.11
2018-06-13T15:47:43.141Z,17.13
2018-06-13T15:50:11.493Z,16.93
2018-06-13T15:52:40.749Z,16.98
2018-06-13T15:55:10.034Z,17.07
2018-06-13T15:57:38.509Z,16.97
2018-06-13T16:00:08.958Z,17.01
2018-06-13T16:02:37.326Z,16.95
2018-06-13T16:05:05.913Z,16.75
2018-06-13T16:07:34.236Z,16.78
2018-06-13T16:10:02.546Z,16.73
2018-06-13T16:12:30.869Z,16.70
2018-06-13T16:15:00.281Z,16.67
2018-06-13T16:17:29.473Z,16.61
2018-06-13T16:19:57.805Z,16.52
2018-06-13T16:22:26.178Z,16.26
2018-06-13T16:24:54.484Z,16.32
2018-06-13T16:27:23.851Z,16.51
2018-06-13T16:29:53.163Z,16.44
2018-06-13T16:32:22.388Z,16.49
2018-06-13T16:34:51.653Z,16.33
2018-06-13T16:37:20.933Z,16.39
2018-06-13T16:39:49.249Z,16.24
2018-06-13T16:42:17.597Z,16.26
2018-06-13T16:44:45.949Z,16.20
2018-06-13T16:47:15.265Z,16.13
2018-06-13T16:49:43.611Z,16.17
2018-06-13T16:52:23.157Z,16.22
2018-06-13T16:55:01.580Z,16.10
2018-06-13T16:57:29.950Z,16.28
2018-06-13T16:59:58.265Z,16.11
2018-06-13T17:02:26.665Z,16.25
2018-06-13T17:04:54.965Z,16.17
2018-06-13T17:07:23.272Z,16.41
2018-06-13T17:09:51.584Z,16.38
2018-06-13T17:12:19.981Z,16.43
2018-06-13T17:14:48.304Z,16.50
2018-06-13T17:17:16.621Z,16.41
2018-06-13T17:19:44.947Z,16.43
2018-06-13T17:22:13.277Z,16.40
2018-06-13T17:24:41.665Z,16.33
2018-06-13T17:27:10.016Z,16.32
2018-06-13T17:29:38.321Z,16.44
2018-06-13T17:32:06.633Z,16.40
2018-06-13T17:34:35.593Z,16.48
2018-06-13T17:37:04.037Z,16.69
2018-06-13T17:39:33.330Z,16.64
2018-06-13T17:42:02.802Z,16.62
2018-06-13T17:44:31.142Z,16.59
2018-06-13T17:46:59.556Z,16.56
2018-06-13T17:49:28.952Z,16.51
2018-06-13T17:51:57.360Z,16.47
2018-06-13T17:54:25.729Z,16.44
2018-06-13T17:56:54.293Z,16.42
2018-06-13T17:59:22.681Z,16.32
2018-06-13T18:01:51.027Z,16.27
2018-06-13T18:04:19.418Z,16.33
2018-06-13T18:06:47.785Z,16.28
2018-06-13T18:09:16.193Z,16.32
2018-06-13T18:11:44.601Z,16.34
2018-06-13T18:14:12.918Z,16.33
2018-06-13T18:16:41.360Z,16.29
2018-06-13T18:19:09.723Z,16.49
2018-06-13T18:21:38.094Z,16.44
2018-06-13T18:24:06.522Z,16.34
2018-06-13T18:26:35.030Z,16.20
2018-06-13T18:29:03.548Z,16.27
2018-06-13T18:31:31.889Z,16.16
2018-06-13T18:34:01.187Z,16.12
2018-06-13T18:36:29.500Z,16.08
2018-06-13T18:38:59.068Z,16.11
2018-06-13T18:41:28.001Z,16.09
2018-06-13T18:43:56.485Z,16.09
2018-06-13T18:46:24.857Z,16.06
